createdAt,value
2018-09-22T00:01:07.687Z,17.40
2018-09-22T00:03:36.182Z,17.40
2018-09-22T00:06:04.473Z,17.40
2018-09-22T00:08:32.917Z,17.40
2018-09-22T00:11:01.408Z,17.50
2018-09-22T00:13:29.951Z,17.50
2018-09-22T00:15:58.264Z,17.60
2018-09-22T00:18:26.513Z,17.50
2018-09-22T00:20:54.983Z,17.50
2018-09-22T00:23:23.319Z,17.60
2018-09-22T00:25:51.984Z,17.60
2018-09-22T00:28:20.748Z,17.70
2018-09-22T00:30:49.075Z,17.70
2018-09-22T00:33:17.381Z,17.70
2018-09-22T00:35:45.754Z,17.70
2018-09-22T00:38:14.101Z,17.80
2018-09-22T00:40:42.477Z,17.80
2018-09-22T00:43:10.815Z,17.80
2018-09-22T00:45:39.150Z,17.80
2018-09-22T00:48:08.078Z,17.80
2018-09-22T00:50:36.354Z,17.70
2018-09-22T00:53:04.799Z,17.80
2018-09-22T00:55:33.270Z,17.80
2018-09-22T00:58:01.766Z,17.80
2018-09-22T01:00:30.169Z,17.70
2018-09-22T01:02:58.575Z,17.60
2018-09-22T01:05:27.075Z,17.60
2018-09-22T01:07:55.429Z,17.60
2018-09-22T01:10:23.728Z,17.60
2018-09-22T01:12:51.953Z,17.40
2018-09-22T01:15:20.146Z,17.20
2018-09-22T01:17:48.510Z,17.20
2018-09-22T01:20:17.095Z,17.20
2018-09-22T01:22:45.599Z,17.20
2018-09-22T01:25:14.208Z,17.10
2018-09-22T01:27:42.483Z,17.10
2018-09-22T01:30:10.748Z,17.10
2018-09-22T01:32:38.998Z,17.00
2018-09-22T01:35:08.493Z,16.90
2018-09-22T01:37:36.784Z,16.80
2018-09-22T01:40:06.203Z,16.90
2018-09-22T01:42:34.461Z,17.00
2018-09-22T01:45:02.923Z,17.00
2018-09-22T01:47:31.204Z,17.10
2018-09-22T01:49:59.509Z,17.20
2018-09-22T01:52:27.883Z,17.20
2018-09-22T01:54:56.119Z,17.20
2018-09-22T01:57:24.472Z,17.30
2018-09-22T01:59:52.825Z,17.30
2018-09-22T02:02:21.235Z,17.30
2018-09-22T02:04:49.462Z,17.30
2018-09-22T02:07:17.967Z,17.30
2018-09-22T02:09:46.214Z,17.30
2018-09-22T02:12:14.540Z,17.30
2018-09-22T02:14:42.894Z,17.30
2018-09-22T02:17:11.215Z,17.20
2018-09-22T02:19:39.535Z,17.20
2018-09-22T02:22:07.956Z,17.30
2018-09-22T02:24:37.071Z,17.30
2018-09-22T02:27:05.430Z,17.20
2018-09-22T02:29:33.808Z,17.20
2018-09-22T02:32:02.062Z,17.20
2018-09-22T02:34:30.879Z,17.20
2018-09-22T02:36:59.632Z,17.20
2018-09-22T02:39:28.287Z,17.10
2018-09-22T02:41:56.709Z,17.10
2018-09-22T02:44:25.165Z,17.10
2018-09-22T02:46:53.695Z,17.00
2018-09-22T02:49:21.907Z,16.90
2018-09-22T02:51:50.424Z,16.90
2018-09-22T02:54:18.671Z,16.90
2018-09-22T02:56:47.042Z,16.90
2018-09-22T02:59:15.331Z,16.90
2018-09-22T03:01:43.567Z,16.90
2018-09-22T03:04:11.796Z,17.00
2018-09-22T03:06:40.078Z,17.00
2018-09-22T03:09:09.939Z,17.00
2018-09-22T03:11:38.388Z,17.00
2018-09-22T03:14:06.794Z,17.00
2018-09-22T03:16:35.030Z,17.00
2018-09-22T03:19:03.336Z,17.00
2018-09-22T03:21:31.523Z,17.00
2018-09-22T03:23:59.729Z,17.00
2018-09-22T03:26:27.931Z,16.90
2018-09-22T03:28:56.207Z,16.80
2018-09-22T03:31:24.515Z,16.80
2018-09-22T03:33:52.974Z,16.80
2018-09-22T03:36:22.237Z,16.80
2018-09-22T03:38:50.577Z,16.70
2018-09-22T03:41:18.976Z,16.60
2018-09-22T03:43:47.239Z,16.50
2018-09-22T03:46:15.581Z,16.50
2018-09-22T03:48:43.837Z,16.50
2018-09-22T03:51:12.217Z,16.40
2018-09-22T03:53:40.494Z,16.40
2018-09-22T03:56:08.741Z,16.40
2018-09-22T03:58:36.958Z,16.50
2018-09-22T04:01:05.335Z,16.50
2018-09-22T04:03:33.569Z,16.40
2018-09-22T04:06:01.790Z,16.30
2018-09-22T04:08:30.065Z,16.20
2018-09-22T04:10:58.298Z,16.30
2018-09-22T04:13:26.531Z,16.30
2018-09-22T04:15:54.755Z,16.30
2018-09-22T04:18:23.005Z,16.40
2018-09-22T04:20:51.513Z,16.40
2018-09-22T04:23:19.841Z,16.40
2018-09-22T04:25:48.224Z,16.40
2018-09-22T04:28:16.700Z,16.40
2018-09-22T04:30:44.982Z,16.40
2018-09-22T04:33:14.030Z,16.20
2018-09-22T04:35:42.347Z,16.10
2018-09-22T04:38:10.701Z,16.10
2018-09-22T04:40:39.166Z,16.20
2018-09-22T04:43:07.428Z,16.20
2018-09-22T04:45:35.917Z,16.10
2018-09-22T04:48:04.373Z,16.10
2018-09-22T04:50:32.751Z,16.20
2018-09-22T04:53:01.053Z,16.20
2018-09-22T04:55:29.581Z,16.30
2018-09-22T04:57:57.937Z,16.30
2018-09-22T05:00:26.288Z,16.30
2018-09-22T05:02:54.513Z,16.30
2018-09-22T05:05:22.965Z,16.30
2018-09-22T05:07:51.262Z,16.30
2018-09-22T05:10:19.875Z,16.20
2018-09-22T05:12:48.692Z,16.10
2018-09-22T05:15:17.194Z,16.00
2018-09-22T05:17:45.725Z,15.80
2018-09-22T05:20:13.975Z,15.60
2018-09-22T05:22:42.323Z,15.50
2018-09-22T05:25:11.010Z,15.60
2018-09-22T05:27:39.469Z,15.70
2018-09-22T05:30:07.823Z,15.80
2018-09-22T05:32:36.204Z,15.70
2018-09-22T05:35:06.055Z,15.80
2018-09-22T05:37:34.740Z,15.80
2018-09-22T05:40:03.232Z,15.90
2018-09-22T05:42:31.497Z,16.00
2018-09-22T05:44:59.871Z,16.10
2018-09-22T05:47:28.186Z,16.20
2018-09-22T05:49:56.579Z,16.30
2018-09-22T05:52:24.883Z,16.30
2018-09-22T05:54:53.251Z,16.40
2018-09-22T05:57:21.667Z,16.40
2018-09-22T05:59:49.883Z,16.30
2018-09-22T06:02:18.187Z,16.30
2018-09-22T06:04:46.425Z,16.30
2018-09-22T06:07:15.237Z,16.30
2018-09-22T06:09:43.521Z,16.40
2018-09-22T06:12:12.006Z,16.40
2018-09-22T06:14:40.346Z,16.40
2018-09-22T06:17:08.774Z,16.30
2018-09-22T06:19:37.381Z,16.20
2018-09-22T06:22:05.841Z,16.30
2018-09-22T06:24:34.414Z,16.30
2018-09-22T06:27:02.697Z,16.20
2018-09-22T06:29:31.208Z,16.20
2018-09-22T06:31:59.528Z,16.20
2018-09-22T06:34:27.969Z,16.20
2018-09-22T06:36:56.403Z,16.20
2018-09-22T06:39:24.750Z,16.20
2018-09-22T06:41:53.241Z,16.30
2018-09-22T06:44:21.742Z,16.30
2018-09-22T06:46:50.407Z,16.30
2018-09-22T06:49:18.873Z,16.20
2018-09-22T06:51:47.248Z,16.10
2018-09-22T06:54:15.629Z,16.10
2018-09-22T06:56:44.034Z,16.10
2018-09-22T06:59:12.397Z,16.10
2018-09-22T07:01:40.808Z,16.20
2018-09-22T07:04:09.266Z,16.30
2018-09-22T07:06:37.585Z,16.40
2018-09-22T07:09:06.624Z,16.40
2018-09-22T07:11:35.197Z,16.30
2018-09-22T07:14:03.809Z,16.10
2018-09-22T07:16:32.305Z,16.20
2018-09-22T07:19:00.738Z,16.30
2018-09-22T07:21:34.548Z,16.30
2018-09-22T07:24:03.173Z,16.10
2018-09-22T07:26:31.480Z,16.10
2018-09-22T07:28:59.998Z,16.10
2018-09-22T07:31:28.304Z,16.20
2018-09-22T07:33:56.656Z,16.30
2018-09-22T07:36:25.148Z,16.40
2018-09-22T07:38:53.534Z,16.60
2018-09-22T07:41:22.032Z,16.70
2018-09-22T07:43:50.417Z,16.60
2018-09-22T07:46:18.919Z,16.60
2018-09-22T07:48:47.433Z,16.70
2018-09-22T07:51:15.902Z,16.80
2018-09-22T07:53:44.779Z,16.80
2018-09-22T07:56:13.476Z,16.70
2018-09-22T07:58:56.962Z,16.70
2018-09-22T08:01:26.222Z,16.70
2018-09-22T08:03:54.799Z,16.70
2018-09-22T08:06:24.104Z,16.80
2018-09-22T08:08:53.404Z,16.90
2018-09-22T08:11:21.884Z,17.00
2018-09-22T08:13:50.555Z,17.10
2018-09-22T08:16:19.217Z,17.10
2018-09-22T08:18:47.535Z,17.20
2018-09-22T08:21:15.873Z,17.20
2018-09-22T08:23:44.234Z,17.10
2018-09-22T08:26:13.430Z,17.10
2018-09-22T08:28:41.828Z,17.10
2018-09-22T08:31:10.177Z,17.10
2018-09-22T08:33:38.558Z,17.10
2018-09-22T08:36:06.968Z,17.20
2018-09-22T08:38:35.542Z,17.20
2018-09-22T08:41:04.076Z,17.20
2018-09-22T08:43:32.454Z,17.30
2018-09-22T08:46:01.155Z,17.30
2018-09-22T08:48:34.663Z,17.10
2018-09-22T08:51:04.017Z,17.10
2018-09-22T08:53:32.543Z,17.10
2018-09-22T08:56:01.093Z,17.10
2018-09-22T08:58:29.526Z,17.20
2018-09-22T09:00:58.284Z,17.10
2018-09-22T09:03:33.435Z,17.20
2018-09-22T09:06:01.817Z,17.30
2018-09-22T09:08:30.274Z,17.30
2018-09-22T09:10:59.431Z,17.30
2018-09-22T09:13:27.884Z,17.20
2018-09-22T09:15:56.450Z,17.20
2018-09-22T09:18:24.849Z,17.30
2018-09-22T09:20:53.297Z,17.50
2018-09-22T09:23:21.798Z,17.60
2018-09-22T09:25:50.094Z,17.50
2018-09-22T09:28:18.359Z,17.70
2018-09-22T09:30:46.812Z,17.70
2018-09-22T09:33:15.185Z,17.80
2018-09-22T09:35:43.529Z,17.80
2018-09-22T09:38:11.903Z,17.80
2018-09-22T09:40:40.946Z,17.90
2018-09-22T09:43:09.328Z,17.90
2018-09-22T09:45:37.678Z,18.00
2018-09-22T09:48:06.433Z,18.00
2018-09-22T09:50:34.962Z,18.00
2018-09-22T09:53:03.423Z,18.10
2018-09-22T09:55:32.057Z,18.10
2018-09-22T09:58:00.641Z,18.20
2018-09-22T10:00:34.392Z,18.20
2018-09-22T10:03:03.168Z,18.30
2018-09-22T10:05:31.625Z,18.40
2018-09-22T10:08:00.192Z,18.40
2018-09-22T10:10:28.652Z,18.20
2018-09-22T10:12:57.223Z,18.10
2018-09-22T10:15:25.834Z,18.10
2018-09-22T10:17:54.117Z,18.20
2018-09-22T10:20:22.694Z,18.20
2018-09-22T10:22:51.530Z,18.30
2018-09-22T10:25:20.115Z,18.20
2018-09-22T10:27:49.435Z,18.10
2018-09-22T10:30:19.099Z,18.00
2018-09-22T10:32:47.467Z,18.00
2018-09-22T10:35:15.923Z,18.10
2018-09-22T10:37:44.475Z,18.10
2018-09-22T10:40:12.818Z,18.20
2018-09-22T10:42:41.419Z,18.20
2018-09-22T10:45:10.580Z,18.00
2018-09-22T10:47:39.570Z,18.00
2018-09-22T10:50:08.169Z,18.00
2018-09-22T10:52:36.910Z,18.10
2018-09-22T10:55:05.910Z,18.10
2018-09-22T10:57:34.433Z,18.00
2018-09-22T11:00:03.004Z,18.00
2018-09-22T11:02:31.766Z,18.00
2018-09-22T11:05:00.313Z,18.00
2018-09-22T11:07:28.785Z,18.00
2018-09-22T11:09:57.129Z,18.00
2018-09-22T11:12:25.516Z,17.90
2018-09-22T11:14:53.891Z,17.80
2018-09-22T11:17:22.764Z,17.90
2018-09-22T11:19:51.391Z,18.00
2018-09-22T11:22:19.746Z,18.10
2018-09-22T11:24:48.460Z,18.20
2018-09-22T11:27:17.119Z,18.20
2018-09-22T11:29:45.599Z,18.20
2018-09-22T11:32:14.178Z,18.10
2018-09-22T11:34:43.155Z,18.00
2018-09-22T11:37:11.570Z,18.20
2018-09-22T11:39:40.190Z,18.40
2018-09-22T11:42:08.733Z,18.60
2018-09-22T11:44:37.147Z,18.60
2018-09-22T11:47:05.770Z,18.70
2018-09-22T11:49:34.378Z,18.60
2018-09-22T11:52:02.859Z,18.60
2018-09-22T11:54:31.262Z,18.50
2018-09-22T11:56:59.699Z,18.40
2018-09-22T11:59:28.146Z,18.50
2018-09-22T12:01:56.577Z,18.50
2018-09-22T12:04:25.144Z,18.50
2018-09-22T12:06:53.688Z,18.50
2018-09-22T12:09:22.106Z,18.50
2018-09-22T12:11:50.606Z,18.60
2018-09-22T12:14:19.001Z,18.60
2018-09-22T12:16:47.552Z,18.60
2018-09-22T12:19:15.929Z,18.70
2018-09-22T12:21:45.364Z,18.70
2018-09-22T12:24:14.068Z,18.70
2018-09-22T12:26:49.251Z,18.70
2018-09-22T12:29:17.985Z,18.70
2018-09-22T12:31:46.356Z,18.80
2018-09-22T12:34:14.788Z,18.80
2018-09-22T12:36:43.211Z,18.70
2018-09-22T12:39:13.032Z,18.70
2018-09-22T12:41:41.541Z,18.70
2018-09-22T12:44:10.336Z,18.80
2018-09-22T12:46:39.481Z,18.90
2018-09-22T12:49:08.210Z,18.90
2018-09-22T12:51:36.685Z,18.90
2018-09-22T12:54:05.487Z,19.00
2018-09-22T12:56:33.863Z,19.00
2018-09-22T12:59:02.296Z,19.10
2018-09-22T13:01:31.093Z,19.10
2018-09-22T13:03:59.791Z,19.10
2018-09-22T13:06:28.037Z,19.00
2018-09-22T13:08:56.398Z,18.90
2018-09-22T13:11:24.957Z,18.80
2018-09-22T13:13:53.266Z,18.80
2018-09-22T13:16:21.769Z,18.70
2018-09-22T13:18:50.268Z,18.80
2018-09-22T13:21:18.800Z,18.90
2018-09-22T13:23:47.323Z,19.00
2018-09-22T13:26:16.528Z,19.10
2018-09-22T13:28:44.847Z,19.10
2018-09-22T13:31:13.399Z,19.10
2018-09-22T13:33:41.948Z,19.00
2018-09-22T13:36:10.450Z,18.90
2018-09-22T13:38:38.909Z,19.00
2018-09-22T13:41:07.311Z,19.10
2018-09-22T13:43:35.990Z,19.20
2018-09-22T13:46:04.323Z,19.30
2018-09-22T13:48:32.984Z,19.40
2018-09-22T13:51:01.850Z,19.30
2018-09-22T13:53:30.633Z,19.30
2018-09-22T13:55:59.870Z,19.20
2018-09-22T13:58:28.329Z,19.10
2018-09-22T14:00:56.891Z,19.10
2018-09-22T14:03:30.315Z,19.10
2018-09-22T14:06:01.986Z,19.10
2018-09-22T14:08:30.517Z,19.10
2018-09-22T14:10:59.639Z,19.10
2018-09-22T14:13:28.856Z,19.20
2018-09-22T14:15:57.393Z,19.20
2018-09-22T14:18:29.936Z,19.30
2018-09-22T14:20:58.413Z,19.40
2018-09-22T14:23:28.113Z,19.40
2018-09-22T14:25:58.271Z,19.40
2018-09-22T14:28:26.974Z,19.40
2018-09-22T14:30:55.591Z,19.40
2018-09-22T14:33:24.038Z,19.30
2018-09-22T14:35:53.167Z,19.30
2018-09-22T14:38:21.684Z,19.30
2018-09-22T14:40:50.337Z,19.30
2018-09-22T14:43:19.370Z,19.20
2018-09-22T14:45:48.821Z,19.10
2018-09-22T14:48:25.018Z,19.10
2018-09-22T14:50:58.157Z,19.10
2018-09-22T14:53:29.498Z,19.10
2018-09-22T14:55:58.261Z,19.10
2018-09-22T14:58:27.346Z,19.10
2018-09-22T15:00:55.807Z,19.20
2018-09-22T15:03:24.969Z,19.00
2018-09-22T15:05:53.491Z,19.00
2018-09-22T15:08:21.825Z,19.00
2018-09-22T15:10:50.228Z,19.00
2018-09-22T15:13:18.702Z,19.10
2018-09-22T15:15:47.162Z,19.10
2018-09-22T15:18:15.840Z,19.00
2018-09-22T15:20:44.569Z,19.00
2018-09-22T15:23:13.030Z,18.90
2018-09-22T15:25:41.444Z,18.80
2018-09-22T15:28:11.348Z,18.80
2018-09-22T15:30:40.208Z,18.80
2018-09-22T15:33:08.892Z,18.90
2018-09-22T15:35:37.549Z,18.80
2018-09-22T15:38:06.331Z,18.80
2018-09-22T15:40:34.665Z,18.80
2018-09-22T15:43:03.239Z,18.80
2018-09-22T15:45:31.767Z,18.90
2018-09-22T15:48:00.244Z,18.90
2018-09-22T15:50:28.605Z,19.00
2018-09-22T15:52:57.324Z,19.00
2018-09-22T15:55:26.639Z,19.10
2018-09-22T15:57:55.215Z,18.90
2018-09-22T16:00:23.730Z,18.90
2018-09-22T16:02:55.269Z,18.90
2018-09-22T16:05:24.465Z,19.00
2018-09-22T16:07:53.092Z,18.90
2018-09-22T16:10:22.293Z,18.80
2018-09-22T16:12:51.138Z,18.80
2018-09-22T16:15:19.792Z,18.80
2018-09-22T16:17:48.282Z,18.80
2018-09-22T16:20:16.587Z,18.70
2018-09-22T16:22:44.917Z,18.70
2018-09-22T16:25:13.420Z,18.60
2018-09-22T16:27:41.801Z,18.70
2018-09-22T16:30:10.540Z,18.60
2018-09-22T16:32:38.994Z,18.60
2018-09-22T16:35:07.579Z,18.60
2018-09-22T16:37:35.918Z,18.50
2018-09-22T16:40:04.294Z,18.40
2018-09-22T16:42:33.087Z,18.40
2018-09-22T16:45:01.559Z,18.40
2018-09-22T16:47:29.843Z,18.40
2018-09-22T16:49:58.613Z,18.40
2018-09-22T16:52:27.248Z,18.40
2018-09-22T16:54:55.688Z,18.50
2018-09-22T16:57:24.505Z,18.50
2018-09-22T16:59:53.154Z,18.50
2018-09-22T17:02:22.006Z,18.50
2018-09-22T17:04:51.033Z,18.40
2018-09-22T17:07:19.625Z,18.50
2018-09-22T17:09:48.018Z,18.40
2018-09-22T17:12:16.810Z,18.40
2018-09-22T17:14:45.376Z,18.40
2018-09-22T17:17:14.637Z,18.30
2018-09-22T17:19:43.029Z,18.30
2018-09-22T17:22:11.629Z,18.40
2018-09-22T17:24:41.982Z,18.40
2018-09-22T17:27:10.676Z,18.30
2018-09-22T17:29:39.632Z,18.30
2018-09-22T17:32:08.911Z,18.30
2018-09-22T17:34:38.041Z,18.30
2018-09-22T17:37:06.593Z,18.30
2018-09-22T17:39:35.072Z,18.40
2018-09-22T17:42:03.478Z,18.40
2018-09-22T17:44:32.434Z,18.30
2018-09-22T17:47:01.128Z,18.40
2018-09-22T17:49:30.484Z,18.40
2018-09-22T17:51:58.974Z,18.40
2018-09-22T17:54:27.608Z,18.40
2018-09-22T17:56:56.323Z,18.30
2018-09-22T17:59:25.536Z,18.40
2018-09-22T18:01:54.634Z,18.40
2018-09-22T18:04:23.500Z,18.40
2018-09-22T18:06:52.403Z,18.50
2018-09-22T18:09:21.132Z,18.50
2018-09-22T18:11:49.832Z,18.40
2018-09-22T18:14:19.781Z,18.50
2018-09-22T18:16:48.831Z,18.40
2018-09-22T18:19:17.461Z,18.40
2018-09-22T18:21:45.949Z,18.50
2018-09-22T18:24:14.636Z,18.50
2018-09-22T18:26:43.023Z,18.50
2018-09-22T18:29:11.351Z,18.50
2018-09-22T18:31:39.738Z,18.50
2018-09-22T18:34:08.689Z,18.50
2018-09-22T18:36:37.422Z,18.40
2018-09-22T18:39:06.960Z,18.30
2018-09-22T18:41:36.116Z,18.10
2018-09-22T18:44:38.169Z,17.90
2018-09-22T18:47:06.736Z,17.80
2018-09-22T18:49:35.289Z,17.70
2018-09-22T18:52:04.214Z,17.60
2018-09-22T18:54:32.998Z,17.60
2018-09-22T18:57:02.470Z,17.50
2018-09-22T18:59:31.023Z,17.40
2018-09-22T19:02:07.512Z,17.30
2018-09-22T19:04:36.406Z,17.30
2018-09-22T19:07:05.663Z,17.20
2018-09-22T19:09:56.657Z,17.30
2018-09-22T19:12:26.672Z,17.40
2018-09-22T19:15:02.142Z,17.20
2018-09-22T19:17:37.034Z,17.10
2018-09-22T19:20:09.774Z,17.10
2018-09-22T19:22:47.956Z,17.10
2018-09-22T19:25:20.569Z,17.10
2018-09-22T19:28:00.955Z,16.90
2018-09-22T19:30:35.727Z,16.80
2018-09-22T19:33:09.967Z,16.70
2018-09-22T19:35:42.169Z,16.70
2018-09-22T19:38:14.901Z,16.60
2018-09-22T19:40:53.888Z,16.60
2018-09-22T19:43:30.490Z,16.50
2018-09-22T19:46:26.331Z,16.50
2018-09-22T19:49:01.881Z,16.40
2018-09-22T19:51:41.083Z,16.60
2018-09-22T19:54:09.929Z,16.60
2018-09-22T19:56:39.482Z,16.60
2018-09-22T19:59:08.212Z,16.60
2018-09-22T20:01:37.025Z,16.70
2018-09-22T20:04:07.145Z,16.70
2018-09-22T20:06:36.000Z,16.80
2018-09-22T20:09:05.877Z,16.80
2018-09-22T20:11:34.430Z,16.70
2018-09-22T20:14:02.958Z,16.70
2018-09-22T20:16:31.494Z,16.50
2018-09-22T20:19:00.089Z,16.40
2018-09-22T20:21:28.703Z,16.50
2018-09-22T20:23:57.190Z,16.40
2018-09-22T20:26:25.674Z,16.40
2018-09-22T20:28:54.621Z,16.50
2018-09-22T20:31:23.293Z,16.60
2018-09-22T20:33:51.971Z,16.70
2018-09-22T20:36:23.852Z,16.80
2018-09-22T20:38:52.335Z,16.90
2018-09-22T20:41:21.445Z,16.90
2018-09-22T20:43:50.679Z,17.00
2018-09-22T20:46:19.361Z,17.00
2018-09-22T20:48:47.954Z,17.00
2018-09-22T20:51:16.419Z,17.00
2018-09-22T20:53:45.054Z,17.00
2018-09-22T20:56:13.581Z,17.00
2018-09-22T20:58:42.245Z,17.00
2018-09-22T21:01:11.069Z,17.00
2018-09-22T21:03:39.629Z,17.00
2018-09-22T21:06:08.106Z,17.00
2018-09-22T21:08:36.462Z,17.00
2018-09-22T21:11:04.998Z,17.00
2018-09-22T21:13:33.472Z,16.90
2018-09-22T21:16:01.909Z,16.90
2018-09-22T21:18:30.436Z,16.80
2018-09-22T21:20:59.339Z,16.70
2018-09-22T21:23:28.730Z,16.60
2018-09-22T21:25:57.468Z,16.60
2018-09-22T21:28:26.053Z,16.70
2018-09-22T21:30:54.639Z,16.70
2018-09-22T21:33:23.756Z,16.60
2018-09-22T21:35:52.169Z,16.60
2018-09-22T21:38:20.738Z,16.50
2018-09-22T21:40:49.189Z,16.50
2018-09-22T21:43:17.662Z,16.60
2018-09-22T21:45:46.208Z,16.50
2018-09-22T21:48:14.620Z,16.40
2018-09-22T21:50:42.996Z,16.50
2018-09-22T21:53:12.178Z,16.40
2018-09-22T21:55:45.267Z,16.40
2018-09-22T21:58:14.151Z,16.40
2018-09-22T22:00:42.949Z,16.40
2018-09-22T22:03:12.002Z,16.30
2018-09-22T22:05:40.332Z,16.30
2018-09-22T22:08:08.792Z,16.20
2018-09-22T22:10:37.145Z,16.20
2018-09-22T22:13:05.492Z,16.20
2018-09-22T22:15:33.875Z,16.10
2018-09-22T22:18:02.178Z,16.20
2018-09-22T22:20:30.495Z,16.20
2018-09-22T22:22:59.049Z,16.20
2018-09-22T22:25:27.525Z,16.10
2018-09-22T22:27:55.768Z,16.10
2018-09-22T22:30:24.185Z,16.10
2018-09-22T22:32:52.617Z,16.00
2018-09-22T22:35:21.210Z,16.00
2018-09-22T22:37:49.527Z,16.10
2018-09-22T22:40:17.822Z,16.10
2018-09-22T22:42:46.111Z,16.00
2018-09-22T22:45:15.298Z,16.00
2018-09-22T22:47:43.835Z,15.90
2018-09-22T22:50:12.214Z,16.00
2018-09-22T22:52:40.575Z,16.00
2018-09-22T22:55:08.929Z,16.10
2018-09-22T22:57:37.215Z,16.10
2018-09-22T23:00:07.007Z,16.20
2018-09-22T23:02:35.508Z,16.20
2018-09-22T23:05:03.751Z,16.20
2018-09-22T23:07:32.060Z,16.20
2018-09-22T23:10:00.511Z,16.20
2018-09-22T23:12:28.945Z,16.20
2018-09-22T23:14:57.366Z,16.20
2018-09-22T23:17:26.598Z,16.20
2018-09-22T23:19:54.878Z,16.10
2018-09-22T23:22:23.339Z,16.10
2018-09-22T23:24:51.688Z,16.10
2018-09-22T23:27:20.185Z,16.10
2018-09-22T23:29:48.509Z,16.10
2018-09-22T23:32:16.832Z,16.00
2018-09-22T23:34:45.105Z,16.00
2018-09-22T23:37:13.358Z,16.00
2018-09-22T23:39:41.654Z,16.10
2018-09-22T23:42:10.063Z,16.10
2018-09-22T23:44:38.409Z,16.10
2018-09-22T23:47:06.813Z,16.00
2018-09-22T23:49:35.117Z,16.00
2018-09-22T23:52:03.419Z,16.00
2018-09-22T23:54:32.573Z,16.00
2018-09-22T23:57:00.862Z,16.10
2018-09-22T23:59:29.110Z,16.00
